WB4FAY-4 Weather Reports


Display with metric or nautical units.
time (UTC)temp
F
wind
direction
speed
MPH
gust
MPH
rain 1hr
in
rain 24hr
in
rain mn
in
humidity
%
barometer
mb
20220125101617 47 0 0.0 0.0 0.00 0.00 0.00 75 1015.6
20220125101118 47 0 0.0 0.0 0.00 0.00 0.00 75 1015.5
20220125100617 47 0 0.0 0.0 0.00 0.00 0.00 74 1015.6
20220125100118 47 0 0.0 0.0 0.00 0.00 0.00 74 1015.4
20220125095618 47 0 0.0 0.0 0.00 0.00 0.00 74 1015.4
20220125095117 47 0 0.0 0.0 0.00 0.00 0.00 74 1015.3
20220125094618 47 0 0.0 0.0 0.00 0.00 0.00 74 1015.3
20220125094117 47 0 0.0 0.0 0.00 0.00 0.00 74 1015.4
20220125093617 47 0 0.0 0.0 0.00 0.00 0.00 74 1015.4
20220125093118 47 0 0.0 0.0 0.00 0.00 0.00 74 1015.4
20220125092617 47 0 0.0 0.0 0.00 0.00 0.00 74 1015.4
20220125092118 47 0 0.0 0.0 0.00 0.00 0.00 74 1015.3
20220125091618 47 0 0.0 0.0 0.00 0.00 0.00 73 1015.2
20220125091118 47 0 0.0 0.0 0.00 0.00 0.00 73 1014.9
20220125090617 48 0 0.0 0.0 0.00 0.00 0.00 73 1015.1
20220125090118 48 0 0.0 0.0 0.00 0.00 0.00 72 1014.9
20220125085617 48 0 0.0 0.0 0.00 0.00 0.00 72 1014.6
20220125085117 48 0 0.0 0.0 0.00 0.00 0.00 72 1014.8
20220125084618 48 0 0.0 0.0 0.00 0.00 0.00 71 1014.7
20220125084117 48 0 0.0 0.0 0.00 0.00 0.00 71 1014.6
20220125083617 48 0 0.0 0.0 0.00 0.00 0.00 71 1014.5
20220125083117 48 0 0.0 0.0 0.00 0.00 0.00 71 1014.4
20220125082617 48 0 0.0 0.0 0.00 0.00 0.00 71 1013.8
20220125082117 48 0 0.0 0.0 0.00 0.00 0.00 71 1014.1
20220125081617 48 0 0.0 0.0 0.00 0.00 0.00 71 1014.7
20220125081118 48 0 0.0 0.0 0.00 0.00 0.00 71 1014.7
20220125080617 48 0 0.0 0.0 0.00 0.00 0.00 71 1014.8
20220125080117 48 0 0.0 0.0 0.00 0.00 0.00 71 1014.9
20220125075618 48 0 0.0 0.0 0.00 0.00 0.00 71 1014.9
20220125075118 48 167 0.0 2.0 0.00 0.00 0.00 70 1014.8
20220125074617 48 0 0.0 0.0 0.00 0.00 0.00 70 1014.8
20220125074117 48 0 0.0 0.0 0.00 0.00 0.00 70 1014.8
20220125073617 48 0 0.0 0.0 0.00 0.00 0.00 71 1014.9
20220125073118 48 0 0.0 0.0 0.00 0.00 0.00 71 1014.9
20220125072618 48 0 0.0 0.0 0.00 0.00 0.00 71 1014.8
20220125072117 48 0 0.0 0.0 0.00 0.00 0.00 71 1014.7
20220125071618 48 0 0.0 0.0 0.00 0.00 0.00 71 1014.6
20220125071118 48 0 0.0 0.0 0.00 0.00 0.00 71 1014.7
20220125070617 48 0 0.0 0.0 0.00 0.00 0.00 71 1014.6
20220125070118 48 0 0.0 0.0 0.00 0.00 0.00 71 1014.7
20220125065618 48 0 0.0 0.0 0.00 0.00 0.00 70 1014.5
20220125065117 49 0 0.0 0.0 0.00 0.00 0.00 69 1014.5
20220125064618 49 0 0.0 0.0 0.00 0.00 0.00 69 1014.3
20220125064118 49 0 0.0 0.0 0.00 0.00 0.00 69 1014.2
20220125063618 49 0 0.0 0.0 0.00 0.00 0.00 69 1014.3
20220125063117 49 0 0.0 0.0 0.00 0.00 0.00 69 1014.3
20220125062617 49 0 0.0 0.0 0.00 0.00 0.00 69 1014.4
20220125062117 49 0 0.0 0.0 0.00 0.00 0.00 68 1014.5
20220125061617 49 0 0.0 0.0 0.00 0.00 0.00 67 1014.4
20220125061117 49 0 0.0 0.0 0.00 0.00 0.00 67 1014.3
20220125060617 49 0 0.0 0.0 0.00 0.00 0.00 67 1014.5
20220125060117 49 0 0.0 0.0 0.00 0.00 0.00 67 1014.4
20220125055617 49 0 0.0 0.0 0.00 0.00 0.00 67 1014.5
20220125055117 49 0 0.0 0.0 0.00 0.00 0.00 67 1014.6
20220125054617 49 0 0.0 0.0 0.00 0.00 0.00 67 1014.6
20220125054117 49 0 0.0 0.0 0.00 0.00 0.00 66 1014.7
20220125053618 49 217 0.0 1.0 0.00 0.00 0.00 67 1014.9
20220125053117 49 0 0.0 0.0 0.00 0.00 0.00 68 1015.0
20220125052617 49 0 0.0 0.0 0.00 0.00 0.00 67 1015.0
20220125052118 49 191 0.0 3.0 0.00 0.00 0.00 66 1015.0
20220125051618 49 0 1.0 0.0 0.00 0.00 0.00 66 1015.0
20220125051117 50 0 0.0 0.0 0.00 0.00 0.00 66 1014.9
20220125050618 50 0 0.0 0.0 0.00 0.00 0.00 66 1014.6
20220125050118 50 0 0.0 0.0 0.00 0.00 0.00 65 1014.6
20220125045617 50 0 0.0 0.0 0.00 0.00 0.00 65 1014.7
20220125045117 50 0 0.0 0.0 0.00 0.00 0.00 65 1014.8
20220125044618 50 0 0.0 0.0 0.00 0.00 0.00 65 1014.8
20220125044117 50 0 0.0 0.0 0.00 0.00 0.00 64 1014.8
20220125043618 50 0 0.0 0.0 0.00 0.00 0.00 64 1014.8
20220125043117 50 0 0.0 0.0 0.00 0.00 0.00 64 1014.8
20220125042623 50 0 0.0 0.0 0.00 0.00 0.00 64 1015.0
20220125042118 50 191 0.0 2.0 0.00 0.00 0.00 64 1015.1
20220125041617 50 244 0.0 3.0 0.00 0.00 0.00 65 1015.0
20220125041118 50 0 0.0 0.0 0.00 0.00 0.00 65 1015.0
20220125040617 50 0 0.0 0.0 0.00 0.00 0.00 65 1015.0
20220125040117 50 244 0.0 1.0 0.00 0.00 0.00 64 1015.1
20220125035617 49 0 0.0 0.0 0.00 0.00 0.00 66 1015.1
20220125035118 50 0 0.0 0.0 0.00 0.00 0.00 66 1015.0
20220125034617 50 0 0.0 0.0 0.00 0.00 0.00 65 1015.0
20220125034117 50 0 0.0 0.0 0.00 0.00 0.00 65 1014.8
20220125033617 50 0 0.0 0.0 0.00 0.00 0.00 65 1014.6
20220125033117 50 0 0.0 0.0 0.00 0.00 0.00 64 1014.5
20220125032617 50 0 0.0 0.0 0.00 0.00 0.00 64 1014.4
20220125032117 50 0 0.0 0.0 0.00 0.00 0.00 64 1014.3
20220125031618 50 0 0.0 0.0 0.00 0.00 0.00 63 1014.4
20220125031117 50 0 0.0 0.0 0.00 0.00 0.00 64 1014.3
20220125030618 50 0 0.0 0.0 0.00 0.00 0.00 63 1014.3
20220125030118 50 0 0.0 0.0 0.00 0.00 0.00 63 1014.2
20220125025617 51 0 0.0 0.0 0.00 0.00 0.00 63 1014.3
20220125025117 51 0 0.0 0.0 0.00 0.00 0.00 62 1014.3
20220125024617 51 0 0.0 0.0 0.00 0.00 0.00 62 1014.2
20220125024117 51 0 0.0 0.0 0.00 0.00 0.00 62 1014.5
20220125023618 51 0 0.0 0.0 0.00 0.00 0.00 62 1014.4
20220125023117 51 0 0.0 0.0 0.00 0.00 0.00 62 1014.5
20220125022618 51 0 0.0 0.0 0.00 0.00 0.00 62 1014.5
20220125022118 51 0 0.0 0.0 0.00 0.00 0.00 62 1014.4
20220125021617 51 0 0.0 0.0 0.00 0.00 0.00 63 1014.5
20220125021117 51 0 0.0 0.0 0.00 0.00 0.00 62 1014.4
20220125020617 51 0 0.0 0.0 0.00 0.00 0.00 62 1014.4
20220125020118 51 0 0.0 0.0 0.00 0.00 0.00 62 1014.4
20220125015617 51 0 0.0 0.0 0.00 0.00 0.00 62 1014.5
20220125015117 51 0 0.0 0.0 0.00 0.00 0.00 61 1014.5
20220125014617 51 0 0.0 0.0 0.00 0.00 0.00 61 1014.6
20220125014117 51 0 0.0 0.0 0.00 0.00 0.00 61 1014.6
20220125013617 51 0 0.0 0.0 0.00 0.00 0.00 60 1014.5
20220125013117 52 0 0.0 0.0 0.00 0.00 0.00 60 1014.5
20220125012618 52 0 0.0 0.0 0.00 0.00 0.00 59 1014.4
20220125012117 52 0 0.0 0.0 0.00 0.00 0.00 59 1014.3
20220125011617 52 0 0.0 0.0 0.00 0.00 0.00 58 1014.3
20220125011118 52 0 0.0 0.0 0.00 0.00 0.00 58 1014.4
20220125010617 52 0 0.0 0.0 0.00 0.00 0.00 57 1014.5
20220125010118 52 0 0.0 0.0 0.00 0.00 0.00 57 1014.4
20220125005617 53 0 0.0 0.0 0.00 0.00 0.00 56 1014.4
20220125005118 53 0 0.0 0.0 0.00 0.00 0.00 55 1014.4
20220125004617 53 0 0.0 0.0 0.00 0.00 0.00 55 1014.3
20220125004118 54 0 0.0 0.0 0.00 0.00 0.00 54 1014.2
20220125003617 54 0 0.0 0.0 0.00 0.00 0.00 53 1014.2
20220125003117 55 0 0.0 0.0 0.00 0.00 0.00 53 1014.3
20220125002617 55 0 0.0 0.0 0.00 0.00 0.00 52 1014.2
20220125002118 55 0 0.0 0.0 0.00 0.00 0.00 51 1014.1
20220125001618 55 0 0.0 0.0 0.00 0.00 0.00 51 1014.0
20220125001117 56 0 0.0 0.0 0.00 0.00 0.00 50 1014.0
20220125000617 56 0 0.0 0.0 0.00 0.00 0.00 50 1013.9
20220125000118 56 216 0.0 2.0 0.00 0.00 0.00 50 1014.0
20220124235617 56 0 0.0 0.0 0.00 0.00 0.00 50 1014.0
20220124235117 56 0 0.0 0.0 0.00 0.00 0.00 50 1014.0
20220124234617 56 0 0.0 0.0 0.00 0.00 0.00 49 1014.0
20220124234117 56 243 0.0 1.0 0.00 0.00 0.00 49 1013.8
20220124233617 56 223 0.0 4.0 0.00 0.00 0.00 49 1013.8
20220124233117 57 0 0.0 0.0 0.00 0.00 0.00 49 1013.9
20220124232618 57 246 0.0 1.0 0.00 0.00 0.00 49 1014.0
20220124232117 57 264 0.0 2.0 0.00 0.00 0.00 48 1013.8
20220124231617 57 229 0.0 4.0 0.00 0.00 0.00 48 1013.9
20220124231118 57 169 4.0 3.0 0.00 0.00 0.00 48 1014.0
20220124230618 58 217 3.0 4.0 0.00 0.00 0.00 48 1013.7
20220124230117 58 0 0.0 0.0 0.00 0.00 0.00 47 1013.9
20220124225617 58 210 0.0 3.0 0.00 0.00 0.00 47 1013.7
20220124225118 58 198 0.0 4.0 0.00 0.00 0.00 46 1013.6
20220124224617 58 0 0.0 0.0 0.00 0.00 0.00 47 1013.4
20220124224118 58 0 0.0 0.0 0.00 0.00 0.00 46 1013.1
20220124223617 58 182 0.0 3.0 0.00 0.00 0.00 46 1013.1
20220124223118 59 192 0.0 4.0 0.00 0.00 0.00 46 1013.0
20220124222617 59 256 0.0 1.0 0.00 0.00 0.00 46 1013.2
20220124222117 59 236 1.0 3.0 0.00 0.00 0.00 45 1013.2
20220124221618 59 196 0.0 8.0 0.00 0.00 0.00 45 1013.0
20220124221117 59 200 2.0 9.0 0.00 0.00 0.00 45 1013.0
20220124220618 59 224 6.0 5.0 0.00 0.00 0.00 44 1012.8
20220124220117 59 199 4.0 5.0 0.00 0.00 0.00 44 1012.7
20220124215617 59 237 0.0 5.0 0.00 0.00 0.00 45 1012.6
20220124215117 59 226 0.0 5.0 0.00 0.00 0.00 44 1012.5
20220124214617 59 232 2.0 9.0 0.00 0.00 0.00 44 1012.6
20220124214117 59 250 5.0 6.0 0.00 0.00 0.00 44 1012.5
20220124213618 59 205 0.0 7.0 0.00 0.00 0.00 43 1012.5
20220124213117 60 191 3.0 9.0 0.00 0.00 0.00 43 1012.5
20220124212617 60 202 4.0 6.0 0.00 0.00 0.00 43 1012.5
20220124212117 60 248 3.0 8.0 0.00 0.00 0.00 42 1012.4
20220124211617 60 189 1.0 9.0 0.00 0.00 0.00 41 1012.4
20220124211117 61 184 3.0 10.0 0.00 0.00 0.00 40 1012.2
20220124210616 61 188 6.0 10.0 0.00 0.00 0.00 39 1012.3
20220124210117 61 232 4.0 7.0 0.00 0.00 0.00 38 1012.4
20220124205617 62 241 2.0 7.0 0.00 0.00 0.00 39 1012.4
20220124205117 62 198 4.0 10.0 0.00 0.00 0.00 38 1012.4
20220124204618 61 198 1.0 11.0 0.00 0.00 0.00 39 1012.3
20220124204117 62 237 5.0 7.0 0.00 0.00 0.00 39 1012.5
20220124203618 61 253 2.0 10.0 0.00 0.00 0.00 41 1012.4
20220124203117 61 234 6.0 8.0 0.00 0.00 0.00 39 1012.1
20220124202617 61 251 0.0 7.0 0.00 0.00 0.00 40 1012.1
20220124202117 61 258 0.0 8.0 0.00 0.00 0.00 40 1012.2
20220124201618 61 203 4.0 8.0 0.00 0.00 0.00 39 1012.3
20220124201118 61 233 0.0 8.0 0.00 0.00 0.00 39 1012.4
20220124200617 61 248 5.0 10.0 0.00 0.00 0.00 40 1012.8
20220124200117 61 226 0.0 12.0 0.00 0.00 0.00 39 1012.7
20220124195617 61 191 8.0 7.0 0.00 0.00 0.00 40 1012.8
20220124195117 61 186 4.0 11.0 0.00 0.00 0.00 41 1013.0
20220124194617 61 198 1.0 11.0 0.00 0.00 0.00 40 1012.8
20220124194118 61 196 3.0 12.0 0.00 0.00 0.00 40 1012.7
20220124193617 61 265 2.0 8.0 0.00 0.00 0.00 42 1012.8
20220124193117 61 243 0.0 6.0 0.00 0.00 0.00 41 1013.0
20220124192617 61 251 3.0 8.0 0.00 0.00 0.00 40 1013.2
20220124192117 61 263 0.0 9.0 0.00 0.00 0.00 40 1013.3
20220124191617 60 213 2.0 9.0 0.00 0.00 0.00 41 1013.3
20220124191117 60 275 4.0 8.0 0.00 0.00 0.00 41 1013.4
20220124190617 60 241 5.0 8.0 0.00 0.00 0.00 40 1013.6
20220124190118 60 216 2.0 8.0 0.00 0.00 0.00 40 1013.7
20220124185617 60 278 3.0 8.0 0.00 0.00 0.00 40 1013.9
20220124185117 60 246 3.0 7.0 0.00 0.00 0.00 40 1013.9
20220124184617 60 217 2.0 3.0 0.00 0.00 0.00 42 1013.9
20220124184118 60 264 2.0 7.0 0.00 0.00 0.00 42 1014.1
20220124183617 59 200 5.0 9.0 0.00 0.00 0.00 41 1014.0
20220124183117 59 181 6.0 9.0 0.00 0.00 0.00 41 1014.1
20220124182617 59 198 4.0 8.0 0.00 0.00 0.00 42 1014.3
20220124182117 59 257 0.0 7.0 0.00 0.00 0.00 44 1014.5
20220124181618 58 226 1.0 6.0 0.00 0.00 0.00 42 1014.5
20220124181117 58 193 0.0 6.0 0.00 0.00 0.00 44 1014.6
20220124180617 57 257 0.0 5.0 0.00 0.00 0.00 45 1014.7
20220124180117 57 241 3.0 6.0 0.00 0.00 0.00 46 1014.8
20220124175617 57 200 4.0 5.0 0.00 0.00 0.00 45 1015.1
20220124175123 56 184 0.0 7.0 0.00 0.00 0.00 45 1015.2
20220124174617 56 193 4.0 7.0 0.00 0.00 0.00 46 1015.2
20220124174117 55 247 2.0 5.0 0.00 0.00 0.00 48 1015.4
20220124173617 55 193 0.0 8.0 0.00 0.00 0.00 47 1015.5
20220124173117 54 232 4.0 7.0 0.00 0.00 0.00 46 1015.6
20220124172617 54 285 2.0 7.0 0.00 0.00 0.00 48 1015.7
20220124172118 54 196 0.0 6.0 0.00 0.00 0.00 48 1015.8
20220124171617 54 186 4.0 5.0 0.00 0.00 0.00 49 1015.8
20220124171118 53 193 0.0 6.0 0.00 0.00 0.00 51 1015.9
20220124170618 53 226 4.0 6.0 0.00 0.00 0.00 49 1016.0
20220124170117 52 137 0.0 7.0 0.00 0.00 0.00 51 1016.0
20220124165618 52 224 5.0 6.0 0.00 0.00 0.00 53 1016.0
20220124165117 52 203 0.0 4.0 0.00 0.00 0.00 51 1016.0
20220124164617 52 359 0.0 4.0 0.00 0.00 0.00 51 1016.1
20220124164117 51 176 0.0 3.0 0.00 0.00 0.00 53 1016.3
20220124163617 51 0 0.0 0.0 0.00 0.00 0.00 56 1016.4
20220124163117 50 226 0.0 1.0 0.00 0.00 0.00 56 1016.4
20220124162618 50 196 0.0 3.0 0.00 0.00 0.00 56 1016.4
20220124162117 49 196 0.0 4.0 0.00 0.00 0.00 56 1016.6
20220124161617 49 212 0.0 3.0 0.00 0.00 0.00 58 1016.7
20220124161118 48 267 0.0 2.0 0.00 0.00 0.00 58 1016.7
20220124160617 48 215 1.0 2.0 0.00 0.00 0.00 60 1016.6
20220124160118 47 0 0.0 0.0 0.00 0.00 0.00 61 1016.7
20220124155617 47 0 0.0 0.0 0.00 0.00 0.00 62 1016.7
20220124155118 46 280 0.0 3.0 0.00 0.00 0.00 61 1016.6
20220124154617 45 205 0.0 1.0 0.00 0.00 0.00 64 1016.7
20220124154117 45 0 0.0 0.0 0.00 0.00 0.00 64 1016.7
20220124153618 44 0 0.0 0.0 0.00 0.00 0.00 67 1016.7
20220124153117 43 0 0.0 0.0 0.00 0.00 0.00 68 1016.6
20220124152617 42 0 0.0 0.0 0.00 0.00 0.00 70 1016.6
20220124152118 42 0 0.0 0.0 0.00 0.00 0.00 71 1016.4
20220124151618 41 0 0.0 0.0 0.00 0.00 0.00 72 1016.5
20220124151117 41 206 0.0 3.0 0.00 0.00 0.00 72 1016.5
20220124150617 40 0 0.0 0.0 0.00 0.00 0.00 75 1016.6
20220124150118 39 0 0.0 0.0 0.00 0.00 0.00 77 1016.6
20220124145618 39 0 0.0 0.0 0.00 0.00 0.00 79 1016.7
20220124145117 38 0 0.0 0.0 0.00 0.00 0.00 80 1016.6
20220124144617 37 0 0.0 0.0 0.00 0.00 0.00 82 1016.6
20220124144117 37 0 0.0 0.0 0.00 0.00 0.00 83 1016.6
20220124143617 36 0 0.0 0.0 0.00 0.00 0.00 84 1016.5
20220124143117 35 0 0.0 0.0 0.00 0.00 0.00 85 1016.6
20220124142617 35 229 0.0 2.0 0.00 0.00 0.00 86 1016.6
20220124142117 34 254 1.0 2.0 0.00 0.00 0.00 88 1016.7
20220124141617 33 0 1.0 0.0 0.00 0.00 0.00 90 1016.5
20220124141117 32 0 0.0 0.0 0.00 0.00 0.00 91 1016.5
20220124140618 32 0 0.0 0.0 0.00 0.00 0.00 91 1016.5
20220124140118 32 0 0.0 0.0 0.00 0.00 0.00 91 1016.6
20220124135618 32 0 0.0 0.0 0.00 0.00 0.00 92 1016.7
20220124135118 31 0 0.0 0.0 0.00 0.00 0.00 91 1016.6
20220124134617 31 0 0.0 0.0 0.00 0.00 0.00 92 1016.6
20220124134117 31 0 0.0 0.0 0.00 0.00 0.00 92 1016.5
20220124133617 31 0 0.0 0.0 0.00 0.00 0.00 92 1016.5
20220124133117 31 0 0.0 0.0 0.00 0.00 0.00 92 1016.5
20220124132618 31 0 0.0 0.0 0.00 0.00 0.00 92 1016.4
20220124132117 31 0 0.0 0.0 0.00 0.00 0.00 92 1016.4
20220124131617 31 0 0.0 0.0 0.00 0.00 0.00 92 1016.4
20220124131117 31 0 0.0 0.0 0.00 0.00 0.00 92 1016.5
20220124130617 31 0 0.0 0.0 0.00 0.00 0.00 92 1016.5
20220124130118 31 0 0.0 0.0 0.00 0.00 0.00 92 1016.6
20220124125617 31 0 0.0 0.0 0.00 0.00 0.00 92 1016.6
20220124125117 31 0 0.0 0.0 0.00 0.00 0.00 92 1016.6
20220124124618 31 0 0.0 0.0 0.00 0.00 0.00 92 1016.6
20220124124117 31 0 0.0 0.0 0.00 0.00 0.00 92 1016.6
20220124123617 31 0 0.0 0.0 0.00 0.00 0.00 92 1016.6
20220124123118 31 0 0.0 0.0 0.00 0.00 0.00 92 1016.6
20220124122617 31 0 0.0 0.0 0.00 0.00 0.00 91 1016.6
20220124122117 31 0 0.0 0.0 0.00 0.00 0.00 91 1016.6
20220124121617 31 0 0.0 0.0 0.00 0.00 0.00 91 1016.5
20220124121117 31 0 0.0 0.0 0.00 0.00 0.00 91 1016.6
20220124120617 31 0 0.0 0.0 0.00 0.00 0.00 92 1016.7
20220124120117 31 0 0.0 0.0 0.00 0.00 0.00 92 1016.7
20220124115618 31 0 0.0 0.0 0.00 0.00 0.00 92 1016.6
20220124115117 31 0 0.0 0.0 0.00 0.00 0.00 91 1016.6
20220124114618 31 0 0.0 0.0 0.00 0.00 0.00 91 1016.5
20220124114117 31 0 0.0 0.0 0.00 0.00 0.00 91 1016.7
20220124113617 31 0 0.0 0.0 0.00 0.00 0.00 91 1016.7
20220124113118 31 0 0.0 0.0 0.00 0.00 0.00 91 1016.7
20220124112617 31 0 0.0 0.0 0.00 0.00 0.00 91 1016.7
20220124112117 31 0 0.0 0.0 0.00 0.00 0.00 91 1016.7
20220124111617 31 0 0.0 0.0 0.00 0.00 0.00 91 1016.7
20220124111118 31 0 0.0 0.0 0.00 0.00 0.00 91 1016.6
20220124110617 31 0 0.0 0.0 0.00 0.00 0.00 91 1016.6
20220124110118 31 0 0.0 0.0 0.00 0.00 0.00 90 1016.5
20220124105617 31 0 0.0 0.0 0.00 0.00 0.00 90 1016.6
20220124105118 31 0 0.0 0.0 0.00 0.00 0.00 90 1016.5
20220124104617 31 0 0.0 0.0 0.00 0.00 0.00 90 1016.5
20220124104118 32 0 0.0 0.0 0.00 0.00 0.00 90 1016.5
20220124103617 32 0 0.0 0.0 0.00 0.00 0.00 89 1016.5
20220124103118 32 0 0.0 0.0 0.00 0.00 0.00 89 1016.5
20220124102617 32 0 0.0 0.0 0.00 0.00 0.00 89 1016.5
20220124102118 32 0 0.0 0.0 0.00 0.00 0.00 88 1016.5